Time;durP1;ratioP1;P1;durP2;ratioP2;P2;SDS_P1;SDS_P2;PMS_P1;PMS_P2;Temp;Humidity;BMP_temperature;BMP_pressure;BME280_temperature;BME280_humidity;BME280_pressure;Samples;Min_cycle;Max_cycle;Signal;HPM_P1;HPM_P2
2021/06/02 00:00:46;;;;;;;10.50;4.55;;;;;;;13.15;58.97;96119.31;5040546;28;20063;-69
2021/06/02 00:03:15;;;;;;;10.15;4.20;;;;;;;13.08;58.24;96119.88;5054300;28;20556;-68
2021/06/02 00:05:41;;;;;;;8.60;4.03;;;;;;;13.05;58.28;96117.84;5054705;28;20115;-68
2021/06/02 00:08:09;;;;;;;8.65;3.97;;;;;;;13.01;57.97;96114.97;5054025;28;20049;-68
2021/06/02 00:10:36;;;;;;;10.88;4.25;;;;;;;12.98;58.47;96123.03;5054467;28;20488;-68
2021/06/02 00:13:03;;;;;;;9.13;4.07;;;;;;;12.93;58.35;96117.78;5054071;28;20067;-69
2021/06/02 00:15:29;;;;;;;11.55;4.68;;;;;;;12.90;59.15;96108.34;5054450;28;20041;-68
2021/06/02 00:17:56;;;;;;;11.13;4.53;;;;;;;12.86;59.31;96112.09;5054458;28;20087;-68
2021/06/02 00:20:22;;;;;;;10.23;4.18;;;;;;;12.83;60.28;96115.50;5054035;28;20063;-68
2021/06/02 00:22:48;;;;;;;12.98;4.85;;;;;;;12.81;59.24;96118.56;5054410;28;20064;-68
2021/06/02 00:25:14;;;;;;;8.45;4.18;;;;;;;12.80;58.74;96114.25;5053853;28;20107;-68
2021/06/02 00:27:42;;;;;;;8.38;3.97;;;;;;;12.76;59.22;96114.13;5045642;28;20033;-68
2021/06/02 00:30:10;;;;;;;9.13;4.32;;;;;;;12.71;59.93;96111.59;5033490;28;20137;-68
2021/06/02 00:32:37;;;;;;;14.35;5.32;;;;;;;12.66;61.09;96114.53;5053591;28;20045;-68
2021/06/02 00:35:05;;;;;;;10.45;4.70;;;;;;;12.63;61.18;96114.41;5052549;28;20037;-69
2021/06/02 00:37:32;;;;;;;10.80;5.00;;;;;;;12.60;61.43;96115.88;5054053;28;20052;-68
2021/06/02 00:39:58;;;;;;;7.53;4.30;;;;;;;12.58;60.69;96112.72;5054089;28;20041;-69
2021/06/02 00:42:26;;;;;;;12.30;4.78;;;;;;;12.52;61.30;96119.50;5053360;28;20042;-68
2021/06/02 00:44:55;;;;;;;10.57;4.32;;;;;;;12.49;61.78;96120.19;5053919;28;20044;-69
2021/06/02 00:47:23;;;;;;;10.80;4.82;;;;;;;12.44;62.09;96117.66;5053536;28;20053;-69
2021/06/02 00:49:49;;;;;;;8.65;4.78;;;;;;;12.40;61.96;96112.06;5053797;28;20049;-68
2021/06/02 00:52:15;;;;;;;9.25;4.65;;;;;;;12.37;62.20;96114.66;5053114;28;20057;-68
2021/06/02 00:54:41;;;;;;;8.55;4.40;;;;;;;12.32;62.87;96109.41;5054031;28;20077;-68
2021/06/02 00:57:14;;;;;;;11.18;4.85;;;;;;;12.30;61.36;96106.22;5049584;28;20136;-68
2021/06/02 00:59:42;;;;;;;8.38;4.95;;;;;;;12.22;61.48;96111.44;5033818;28;20045;-68
2021/06/02 01:02:13;;;;;;;7.97;4.72;;;;;;;12.17;61.82;96106.16;5049315;28;20045;-68
2021/06/02 01:04:40;;;;;;;12.55;5.40;;;;;;;12.12;62.12;96100.91;5053721;28;20047;-68
2021/06/02 01:07:09;;;;;;;11.23;4.80;;;;;;;12.08;62.18;96094.50;5052893;28;20419;-68
2021/06/02 01:09:35;;;;;;;10.27;4.80;;;;;;;12.05;61.43;96100.63;5053369;28;20496;-68
2021/06/02 01:12:01;;;;;;;9.27;4.47;;;;;;;12.01;62.28;96110.63;5052939;28;20119;-68
2021/06/02 01:14:29;;;;;;;10.23;4.93;;;;;;;11.99;61.83;96110.94;5053390;28;20056;-69
2021/06/02 01:16:57;;;;;;;10.25;4.72;;;;;;;11.89;63.13;96105.88;5053415;28;20041;-68
2021/06/02 01:19:25;;;;;;;10.40;5.30;;;;;;;11.86;63.23;96108.50;5053025;28;20052;-67
2021/06/02 01:21:56;;;;;;;10.15;5.00;;;;;;;11.86;63.43;96119.41;5053216;28;20049;-68
2021/06/02 01:24:25;;;;;;;9.13;4.55;;;;;;;11.86;63.18;96108.50;5052549;28;20041;-67
2021/06/02 01:26:54;;;;;;;16.05;5.20;;;;;;;11.82;63.05;96115.75;5050833;28;20047;-67
2021/06/02 01:29:21;;;;;;;11.07;4.63;;;;;;;11.80;62.90;96109.78;5013011;28;20045;-67
2021/06/02 01:32:20;;;;;;;7.97;4.18;;;;;;;11.79;62.91;96113.63;5041374;28;20045;-68
2021/06/02 01:35:24;;;;;;;7.72;3.92;;;;;;;11.67;63.13;96117.88;5051766;28;20037;-67
2021/06/02 01:38:15;;;;;;;8.20;4.25;;;;;;;11.65;63.63;96109.25;5053009;28;20498;-67
2021/06/02 01:41:18;;;;;;;10.07;4.85;;;;;;;11.67;63.10;96117.09;5052915;28;20076;-67
2021/06/02 01:44:20;;;;;;;8.32;4.55;;;;;;;11.65;63.36;96111.19;5052895;28;20056;-68
2021/06/02 01:47:12;;;;;;;9.60;4.18;;;;;;;11.66;62.84;96108.09;5029710;28;20428;-67
2021/06/02 01:50:30;;;;;;;11.35;4.47;;;;;;;11.62;62.70;96112.63;5039643;28;20049;-67
2021/06/02 01:53:35;;;;;;;10.82;4.88;;;;;;;11.57;63.22;96110.09;4990735;28;20517;-67
2021/06/02 01:56:28;;;;;;;9.73;4.80;;;;;;;11.55;63.96;96108.81;4970133;28;20046;-71
2021/06/02 01:59:19;;;;;;;10.60;5.45;;;;;;;11.52;63.89;96104.81;5027629;28;20460;-69
2021/06/02 02:02:16;;;;;;;11.52;5.05;;;;;;;11.49;63.23;96100.84;5046024;28;20045;-69
2021/06/02 02:05:03;;;;;;;9.98;4.55;;;;;;;11.47;63.19;96102.28;5052385;28;20037;-69
2021/06/02 02:08:02;;;;;;;9.88;5.03;;;;;;;11.41;64.60;96098.16;5052329;28;20048;-69
2021/06/02 02:10:48;;;;;;;13.88;5.45;;;;;;;11.37;64.87;96097.19;5052175;28;20382;-69
2021/06/02 02:13:30;;;;;;;11.55;5.03;;;;;;;11.36;64.60;96101.06;5049989;28;20055;-68
2021/06/02 02:16:18;;;;;;;10.07;4.43;;;;;;;11.36;63.59;96090.16;5052632;28;20045;-69
2021/06/02 02:18:50;;;;;;;9.13;4.38;;;;;;;11.35;63.27;96094.00;5042303;28;20039;-69
2021/06/02 02:21:42;;;;;;;9.65;4.60;;;;;;;11.32;63.05;96092.72;5051903;28;20091;-69
2021/06/02 02:24:22;;;;;;;10.27;4.40;;;;;;;11.26;63.72;96091.31;5051975;28;20053;-69
2021/06/02 02:26:57;;;;;;;11.35;5.18;;;;;;;11.23;64.14;96094.72;5037017;28;20046;-69
2021/06/02 02:29:35;;;;;;;11.82;5.22;;;;;;;11.20;64.35;96093.44;5030857;28;20080;-69
2021/06/02 02:32:14;;;;;;;14.30;6.03;;;;;;;11.18;65.16;96106.59;5032182;28;20037;-70
2021/06/02 02:35:07;;;;;;;8.88;4.47;;;;;;;11.17;64.26;96096.84;5031820;28;20041;-69
2021/06/02 02:37:42;;;;;;;14.00;5.03;;;;;;;11.14;65.43;96097.47;5031761;28;20531;-69
2021/06/02 02:40:19;;;;;;;14.07;5.47;;;;;;;11.13;64.95;96100.53;5031381;28;20045;-69
2021/06/02 02:42:51;;;;;;;10.73;5.35;;;;;;;11.10;65.24;96099.25;5031578;28;20049;-69
2021/06/02 02:45:24;;;;;;;10.20;4.68;;;;;;;11.10;63.81;96104.72;5031417;28;20056;-69
2021/06/02 02:48:16;;;;;;;;;;;;;;;11.08;63.50;96111.63;5031852;28;20057;-69
2021/06/02 02:50:51;;;;;;;11.48;4.90;;;;;;;11.00;64.40;96109.72;5031724;28;19920;-69
2021/06/02 02:53:22;;;;;;;9.00;4.70;;;;;;;11.00;63.90;96104.28;5031122;28;20049;-69
2021/06/02 02:55:56;;;;;;;10.30;5.10;;;;;;;10.99;64.09;96106.19;5031615;28;20049;-69
2021/06/02 02:58:30;;;;;;;9.82;4.85;;;;;;;11.00;63.97;96110.50;5031117;28;20493;-69
2021/06/02 03:01:00;;;;;;;18.05;6.15;;;;;;;10.98;65.03;96112.78;5035965;28;20053;-69
2021/06/02 03:03:31;;;;;;;9.20;5.22;;;;;;;10.99;64.49;96119.81;5034764;28;20045;-69
2021/06/02 03:06:06;;;;;;;10.70;5.50;;;;;;;10.97;64.61;96122.09;5031553;28;20049;-69
2021/06/02 03:08:39;;;;;;;13.43;5.72;;;;;;;10.96;64.43;96131.34;5031119;28;20485;-69
2021/06/02 03:11:11;;;;;;;13.13;5.15;;;;;;;10.97;64.66;96132.97;5030273;28;20554;-69
2021/06/02 03:13:45;;;;;;;10.50;5.07;;;;;;;10.91;64.76;96134.25;5031250;28;20049;-69
2021/06/02 03:16:17;;;;;;;12.93;5.50;;;;;;;10.87;65.01;96134.13;5030514;28;20048;-68
2021/06/02 03:18:48;;;;;;;10.98;5.63;;;;;;;10.86;65.54;96137.19;5031362;28;20037;-69
2021/06/02 03:21:30;;;;;;;10.80;5.65;;;;;;;10.82;65.97;96136.22;5030490;28;20049;-69
2021/06/02 03:24:15;;;;;;;13.43;6.15;;;;;;;10.80;65.79;96141.19;5031009;28;20048;-69
2021/06/02 03:26:47;;;;;;;14.65;6.15;;;;;;;10.74;66.10;96140.56;5030872;28;20099;-69
2021/06/02 03:29:25;;;;;;;16.83;6.63;;;;;;;10.74;67.07;96139.75;5030440;28;20049;-69
2021/06/02 03:32:09;;;;;;;17.35;6.47;;;;;;;10.73;67.31;96149.06;5039202;28;20104;-69
2021/06/02 03:34:50;;;;;;;17.77;6.63;;;;;;;10.74;67.34;96139.75;5011073;28;20092;-69
2021/06/02 03:37:41;;;;;;;18.05;6.88;;;;;;;10.75;67.33;96133.19;5010617;28;20053;-69
2021/06/02 03:40:21;;;;;;;14.77;5.93;;;;;;;10.74;66.61;96140.56;5010752;28;20049;-69
2021/06/02 03:42:52;;;;;;;13.65;6.18;;;;;;;10.77;65.74;96133.69;5011147;28;20133;-69
2021/06/02 03:45:47;;;;;;;15.70;6.38;;;;;;;10.77;65.04;96137.19;5010576;28;20497;-69
2021/06/02 03:48:31;;;;;;;11.55;6.20;;;;;;;10.75;65.14;96141.34;5010787;28;20050;-69
2021/06/02 03:51:10;;;;;;;15.52;6.28;;;;;;;10.71;65.84;96144.75;5011153;28;20046;-69
2021/06/02 03:53:51;;;;;;;17.20;6.47;;;;;;;10.71;65.41;96142.03;5011058;28;20038;-69
2021/06/02 03:56:32;;;;;;;10.25;5.30;;;;;;;10.70;65.63;96145.03;5010303;28;20053;-69
2021/06/02 03:59:06;;;;;;;12.90;6.40;;;;;;;10.74;65.38;96145.22;5011117;28;20050;-69
2021/06/02 04:01:48;;;;;;;16.70;7.20;;;;;;;10.70;66.66;96151.31;5031917;28;20053;-69
2021/06/02 04:04:21;;;;;;;12.37;6.50;;;;;;;10.72;66.14;96153.72;5029591;28;20048;-69
2021/06/02 04:06:54;;;;;;;12.88;6.28;;;;;;;10.74;65.95;96156.09;5030813;28;20280;-69
2021/06/02 04:09:25;;;;;;;16.75;7.63;;;;;;;10.77;65.74;96152.75;5029965;28;20071;-69
2021/06/02 04:12:02;;;;;;;12.77;6.75;;;;;;;10.75;66.23;96146.81;5030560;28;20041;-69
2021/06/02 04:14:33;;;;;;;11.13;6.05;;;;;;;10.75;66.45;96154.97;5030292;28;20041;-69
2021/06/02 04:17:01;;;;;;;13.05;6.13;;;;;;;10.78;66.37;96154.34;5030629;28;20047;-69
2021/06/02 04:19:29;;;;;;;11.95;6.15;;;;;;;10.78;66.39;96157.06;5030017;28;20050;-69
2021/06/02 04:22:02;;;;;;;12.10;6.03;;;;;;;10.82;65.98;96168.91;5030485;28;20120;-69
2021/06/02 04:24:30;;;;;;;15.07;6.95;;;;;;;10.86;66.48;96169.88;5030069;28;20033;-69
2021/06/02 04:26:56;;;;;;;14.43;6.60;;;;;;;10.90;66.56;96173.53;5030258;28;20049;-69
2021/06/02 04:29:24;;;;;;;13.60;6.45;;;;;;;10.96;66.53;96174.94;5030074;28;20049;-69
2021/06/02 04:31:54;;;;;;;14.05;6.35;;;;;;;11.00;66.85;96178.63;5041953;28;20084;-69
2021/06/02 04:34:23;;;;;;;12.40;6.57;;;;;;;11.02;66.77;96176.41;5009790;28;20058;-69
2021/06/02 04:36:51;;;;;;;16.58;6.72;;;;;;;11.05;66.13;96178.47;5012404;28;20037;-69
2021/06/02 04:39:19;;;;;;;18.77;7.40;;;;;;;11.06;66.36;96180.06;5013706;28;20041;-69
2021/06/02 04:41:47;;;;;;;13.23;6.65;;;;;;;11.07;66.25;96192.56;5014335;28;20046;-69
2021/06/02 04:44:15;;;;;;;14.95;7.13;;;;;;;11.07;66.42;96181.69;5013586;28;20050;-68
2021/06/02 04:46:41;;;;;;;15.23;7.25;;;;;;;11.11;66.28;96185.31;5014123;28;20042;-69
2021/06/02 04:49:08;;;;;;;19.98;7.03;;;;;;;11.17;65.88;96181.31;5013681;28;20057;-69
2021/06/02 04:52:10;;;;;;;11.98;6.75;;;;;;;11.22;65.23;96183.88;5013849;28;20058;-69
2021/06/02 04:55:27;;;;;;;12.35;6.50;;;;;;;11.30;64.58;96195.06;5013949;28;20056;-69
2021/06/02 04:58:30;;;;;;;13.02;7.35;;;;;;;11.34;64.16;96193.28;5013738;28;20042;-69
2021/06/02 05:01:34;;;;;;;13.10;7.35;;;;;;;11.39;64.85;96201.28;5027557;28;20048;-69
2021/06/02 05:04:19;;;;;;;;;;;;;;;11.38;64.36;96203.22;5031891;28;20041;-69
2021/06/02 05:07:12;;;;;;;;;;;;;;;11.37;64.91;96200.78;5033958;28;19920;-69
2021/06/02 05:10:29;;;;;;;22.77;7.15;;;;;;;11.36;64.43;96200.00;5033248;28;19921;-69
2021/06/02 05:13:46;;;;;;;11.85;6.95;;;;;;;11.41;65.13;96199.03;5033338;28;20408;-69
2021/06/02 05:17:06;;;;;;;16.95;7.97;;;;;;;11.47;66.95;96206.69;5032375;28;20049;-69
2021/06/02 05:20:04;;;;;;;15.13;7.53;;;;;;;11.56;67.06;96206.66;5033053;28;20523;-69
2021/06/02 05:23:18;;;;;;;15.50;7.25;;;;;;;11.69;66.87;96213.84;5033103;28;20037;-69
2021/06/02 05:26:17;;;;;;;15.02;6.82;;;;;;;11.74;63.22;96210.91;5033139;28;20045;-69
2021/06/02 05:29:19;;;;;;;11.57;5.90;;;;;;;11.85;61.82;96221.47;5033244;28;20041;-69
2021/06/02 05:32:07;;;;;;;15.25;6.85;;;;;;;11.95;60.51;96213.72;5044082;28;20088;-69
2021/06/02 05:35:02;;;;;;;11.68;5.97;;;;;;;12.09;61.03;96213.47;5013001;28;20504;-69
2021/06/02 05:38:01;;;;;;;12.55;6.15;;;;;;;12.24;61.55;96212.88;5013177;28;20046;-69
2021/06/02 05:40:50;;;;;;;12.95;6.25;;;;;;;12.42;61.93;96212.75;5012749;28;20053;-69
2021/06/02 05:43:55;;;;;;;9.68;5.28;;;;;;;12.57;61.74;96211.34;5012783;28;20050;-67
2021/06/02 05:47:04;;;;;;;14.38;6.70;;;;;;;12.71;61.70;96218.16;5012578;28;20366;-67
2021/06/02 05:49:56;;;;;;;19.52;7.90;;;;;;;12.86;60.77;96218.66;5010279;28;20512;-69
2021/06/02 05:52:43;;;;;;;20.92;7.63;;;;;;;12.96;60.36;96210.06;5009163;28;20615;-69
2021/06/02 05:55:49;;;;;;;20.13;7.15;;;;;;;13.07;60.15;96206.56;5009412;28;20461;-69
2021/06/02 05:58:53;;;;;;;16.02;6.78;;;;;;;13.17;59.41;96202.59;4998117;28;20050;-74
2021/06/02 06:01:51;;;;;;;23.10;7.13;;;;;;;13.29;60.50;96210.06;5028436;28;20056;-74
2021/06/02 06:04:50;;;;;;;17.00;6.63;;;;;;;13.40;59.28;96207.69;5027215;28;20503;-74
2021/06/02 06:07:47;;;;;;;18.40;6.63;;;;;;;13.49;59.18;96206.44;5028786;28;20057;-72
2021/06/02 06:10:39;;;;;;;16.30;6.32;;;;;;;13.62;59.17;96211.91;5029435;28;20100;-73
2021/06/02 06:13:40;;;;;;;16.27;6.30;;;;;;;13.71;57.94;96215.34;5029455;28;20432;-73
2021/06/02 06:16:32;;;;;;;17.08;6.22;;;;;;;13.80;57.35;96210.56;5029530;28;20049;-73
2021/06/02 06:19:25;;;;;;;12.65;6.18;;;;;;;13.92;57.25;96212.50;5029770;28;20080;-72
2021/06/02 06:22:35;;;;;;;14.20;6.18;;;;;;;14.01;56.75;96204.97;5029789;28;20065;-72
2021/06/02 06:25:05;;;;;;;13.90;6.00;;;;;;;14.09;56.40;96207.59;4987268;28;20042;-73
2021/06/02 06:27:39;;;;;;;12.80;5.70;;;;;;;14.19;56.44;96211.78;5024691;28;20048;-73
2021/06/02 06:30:09;;;;;;;18.25;7.15;;;;;;;14.33;57.07;96214.97;5029244;28;20405;-73
2021/06/02 06:32:38;;;;;;;16.08;6.75;;;;;;;14.43;55.78;96207.41;5044843;28;20041;-73
2021/06/02 06:35:07;;;;;;;14.00;6.30;;;;;;;14.56;56.65;96214.47;5049448;28;20084;-72
2021/06/02 06:37:39;;;;;;;22.08;7.63;;;;;;;14.69;57.14;96215.25;5048985;28;20060;-73
2021/06/02 06:40:08;;;;;;;15.52;6.00;;;;;;;14.78;56.98;96222.19;5048827;28;20044;-72
2021/06/02 06:42:39;;;;;;;12.50;5.78;;;;;;;14.88;57.31;96221.69;5049251;28;20107;-73
2021/06/02 06:45:08;;;;;;;13.57;5.70;;;;;;;14.99;54.89;96232.19;5031324;28;20056;-72
2021/06/02 06:47:37;;;;;;;13.25;5.82;;;;;;;15.07;54.57;96231.22;5049234;28;20049;-71
2021/06/02 06:50:09;;;;;;;13.55;5.60;;;;;;;15.20;55.81;96231.97;5049144;28;20045;-71
2021/06/02 06:52:38;;;;;;;17.05;6.30;;;;;;;15.30;57.63;96221.28;5049715;28;20052;-72
2021/06/02 06:55:07;;;;;;;13.95;6.10;;;;;;;15.40;56.53;96226.25;5050000;28;20192;-72
2021/06/02 06:57:34;;;;;;;10.55;5.60;;;;;;;15.48;56.02;96220.94;5050549;28;20045;-71
2021/06/02 07:00:01;;;;;;;11.52;5.03;;;;;;;15.54;55.59;96222.25;5051021;28;20041;-73
2021/06/02 07:02:28;;;;;;;12.55;5.53;;;;;;;15.63;56.06;96225.66;5041103;28;20127;-71
2021/06/02 07:04:57;;;;;;;10.00;4.70;;;;;;;15.67;53.12;96223.81;5031227;28;20056;-71
2021/06/02 07:07:24;;;;;;;16.67;5.43;;;;;;;15.75;51.54;96213.81;5030736;28;20041;-71
2021/06/02 07:09:52;;;;;;;11.85;4.80;;;;;;;15.83;51.55;96221.88;5031159;28;20046;-72
2021/06/02 07:12:21;;;;;;;13.32;5.20;;;;;;;15.95;52.62;96231.16;5030425;28;20053;-71
2021/06/02 07:14:49;;;;;;;10.05;4.80;;;;;;;16.06;51.35;96240.44;5030417;28;20045;-71
2021/06/02 07:17:16;;;;;;;9.23;5.13;;;;;;;16.16;51.78;96237.16;5030325;28;20053;-71
2021/06/02 07:19:47;;;;;;;11.85;4.53;;;;;;;16.21;51.30;96236.88;5043825;28;20045;-71
2021/06/02 07:22:13;;;;;;;11.52;4.43;;;;;;;16.26;49.78;96233.88;5050424;28;20071;-71
2021/06/02 07:24:40;;;;;;;10.15;4.55;;;;;;;16.36;51.41;96236.06;5033982;28;20038;-71
2021/06/02 07:27:07;;;;;;;10.13;4.60;;;;;;;16.44;50.19;96235.09;5030605;28;20053;-73
2021/06/02 07:29:33;;;;;;;13.02;4.70;;;;;;;16.51;51.00;96239.13;5036927;28;20048;-71
2021/06/02 07:31:59;;;;;;;9.63;4.90;;;;;;;16.57;51.11;96238.50;5045526;28;20041;-71
2021/06/02 07:34:25;;;;;;;11.43;5.03;;;;;;;16.65;50.42;96233.94;5030703;28;20076;-71
2021/06/02 07:36:51;;;;;;;10.23;4.97;;;;;;;16.69;49.84;96240.31;5030776;28;20555;-72
2021/06/02 07:39:17;;;;;;;11.18;5.25;;;;;;;16.70;49.05;96247.38;5030411;28;20125;-72
2021/06/02 07:41:43;;;;;;;11.32;5.10;;;;;;;16.79;49.76;96242.53;5030798;28;20038;-71
2021/06/02 07:44:11;;;;;;;20.63;5.63;;;;;;;16.86;49.70;96245.44;5030740;28;20050;-71
2021/06/02 07:46:37;;;;;;;17.75;8.43;;;;;;;16.92;48.50;96244.00;5030742;28;20045;-71
2021/06/02 07:49:04;;;;;;;13.35;5.95;;;;;;;16.97;49.08;96244.88;5030465;28;20091;-72
2021/06/02 07:51:31;;;;;;;11.18;5.30;;;;;;;17.05;47.72;96247.38;5030240;28;20054;-71
2021/06/02 07:53:57;;;;;;;8.48;4.55;;;;;;;17.17;52.38;96249.19;5030896;28;20064;-71
2021/06/02 07:56:23;;;;;;;12.95;4.68;;;;;;;17.35;49.66;96244.03;5030311;28;20128;-71
2021/06/02 07:58:49;;;;;;;11.20;4.70;;;;;;;17.54;50.76;96244.00;5030722;28;20528;-72
2021/06/02 08:01:16;;;;;;;15.85;6.22;;;;;;;17.80;49.93;96240.56;5038354;28;20048;-71
2021/06/02 08:03:42;;;;;;;12.68;5.40;;;;;;;17.99;48.44;96242.44;5031000;28;20049;-72
2021/06/02 08:06:08;;;;;;;15.30;5.72;;;;;;;18.20;49.39;96241.97;5030148;28;20065;-72
2021/06/02 08:08:34;;;;;;;16.17;5.28;;;;;;;18.90;48.90;96243.41;5030688;28;20045;-72
2021/06/02 08:11:01;;;;;;;13.43;5.53;;;;;;;20.32;42.66;96244.09;5030844;28;20076;-72
2021/06/02 08:13:27;;;;;;;9.50;4.32;;;;;;;21.79;39.20;96240.84;5034349;28;20412;-72
2021/06/02 08:15:53;;;;;;;11.38;4.43;;;;;;;23.04;36.10;96234.44;5034064;28;20045;-72
2021/06/02 08:18:20;;;;;;;8.45;3.88;;;;;;;24.15;34.47;96245.75;5034350;28;20049;-72
2021/06/02 08:20:46;;;;;;;8.82;4.18;;;;;;;24.85;31.75;96242.75;5034578;28;20111;-72
2021/06/02 08:23:12;;;;;;;10.13;3.80;;;;;;;25.37;30.14;96245.34;5033807;28;20891;-72
2021/06/02 08:25:38;;;;;;;9.70;4.43;;;;;;;25.99;31.72;96241.34;5033799;28;20041;-72
2021/06/02 08:28:05;;;;;;;11.65;4.38;;;;;;;26.01;30.27;96242.50;5034034;28;20111;-71
2021/06/02 08:30:31;;;;;;;11.18;4.82;;;;;;;26.53;28.99;96230.16;5032339;28;20041;-72
2021/06/02 08:32:57;;;;;;;9.40;4.15;;;;;;;26.92;29.22;96234.22;5040100;28;20096;-72
2021/06/02 08:35:24;;;;;;;13.40;4.95;;;;;;;27.15;29.53;96239.78;5033522;28;20403;-71
2021/06/02 08:37:50;;;;;;;15.98;5.03;;;;;;;27.41;29.39;96231.69;5034243;28;20061;-72
2021/06/02 08:40:17;;;;;;;14.15;4.72;;;;;;;27.87;29.14;96238.28;5046408;28;20195;-72
2021/06/02 08:42:44;;;;;;;10.57;4.22;;;;;;;28.33;27.72;96235.22;5054164;28;20049;-72
2021/06/02 08:45:14;;;;;;;9.18;4.30;;;;;;;28.63;29.28;96241.69;5052856;28;20651;-72
2021/06/02 08:47:42;;;;;;;11.85;4.50;;;;;;;28.84;27.23;96237.53;5053401;28;20043;-73
2021/06/02 08:50:09;;;;;;;7.50;4.07;;;;;;;29.34;26.18;96239.78;5053397;28;20045;-73
2021/06/02 08:52:38;;;;;;;14.15;4.65;;;;;;;29.58;29.83;96240.28;5053749;28;20045;-72
2021/06/02 08:55:05;;;;;;;12.88;4.85;;;;;;;29.68;28.04;96241.22;5053124;28;20052;-72
2021/06/02 08:57:32;;;;;;;10.48;4.13;;;;;;;29.73;25.48;96243.47;5053580;28;20041;-72
2021/06/02 08:59:58;;;;;;;8.95;4.13;;;;;;;29.58;25.04;96245.13;5039075;28;20519;-72
2021/06/02 09:02:24;;;;;;;8.38;4.38;;;;;;;29.01;24.63;96238.31;5042963;28;20042;-72
2021/06/02 09:04:50;;;;;;;9.75;4.47;;;;;;;28.15;25.86;96246.03;5033250;28;20059;-71
2021/06/02 09:07:16;;;;;;;11.73;5.00;;;;;;;28.02;29.63;96242.34;5033239;28;20049;-72
2021/06/02 09:09:44;;;;;;;10.85;4.00;;;;;;;27.73;27.78;96248.59;5033114;28;20100;-72
2021/06/02 09:12:14;;;;;;;9.30;4.40;;;;;;;27.30;28.58;96232.69;5032401;28;20057;-72
2021/06/02 09:14:43;;;;;;;13.35;4.80;;;;;;;26.92;31.00;96242.59;5033075;28;20080;-72
2021/06/02 09:17:11;;;;;;;14.13;4.28;;;;;;;26.63;31.22;96245.91;5033033;28;20519;-72
2021/06/02 09:19:40;;;;;;;14.75;5.20;;;;;;;26.28;30.95;96252.84;5032947;28;20052;-72
2021/06/02 09:22:08;;;;;;;14.90;5.03;;;;;;;25.38;34.22;96249.75;5031945;28;20502;-70
2021/06/02 09:24:47;;;;;;;25.70;6.57;;;;;;;24.82;33.05;96249.16;5032537;28;20045;-71
2021/06/02 09:27:13;;;;;;;15.25;4.72;;;;;;;24.51;35.87;96246.28;5032137;28;20045;-70
2021/06/02 09:29:53;;;;;;;11.95;4.30;;;;;;;24.38;35.38;96251.56;5033160;28;20701;-71
2021/06/02 09:32:20;;;;;;;13.40;5.03;;;;;;;24.38;36.41;96254.34;5049730;28;20048;-71
2021/06/02 09:34:47;;;;;;;11.73;4.97;;;;;;;24.29;33.29;96254.00;5052758;28;20045;-73
2021/06/02 09:37:13;;;;;;;11.38;4.57;;;;;;;24.14;36.17;96250.53;5052536;28;20048;-71
2021/06/02 09:39:40;;;;;;;14.18;4.65;;;;;;;24.22;39.70;96251.25;5053245;28;20037;-71
2021/06/02 09:42:19;;;;;;;13.80;4.82;;;;;;;24.28;39.38;96254.41;5052319;28;20124;-71
2021/06/02 09:45:00;;;;;;;12.65;4.90;;;;;;;24.34;37.32;96252.75;5052567;28;20500;-72
2021/06/02 09:47:40;;;;;;;12.88;5.18;;;;;;;24.46;38.62;96249.50;5052523;28;20138;-72
2021/06/02 09:50:07;;;;;;;12.27;5.45;;;;;;;24.48;38.18;96252.66;5052434;28;20049;-71
2021/06/02 09:52:44;;;;;;;16.05;5.70;;;;;;;24.55;35.94;96252.59;5052077;28;20045;-71
2021/06/02 09:55:11;;;;;;;12.10;5.20;;;;;;;24.55;37.18;96252.59;5052155;28;20041;-72
2021/06/02 09:57:39;;;;;;;15.85;5.80;;;;;;;24.53;36.83;96255.00;5052300;28;20516;-71
2021/06/02 10:00:06;;;;;;;13.77;5.35;;;;;;;24.60;37.98;96254.94;5051821;28;20405;-71
2021/06/02 10:02:32;;;;;;;12.00;4.90;;;;;;;24.60;36.49;96254.16;5022405;28;20049;-71
2021/06/02 10:05:00;;;;;;;13.60;5.85;;;;;;;24.53;38.68;96254.19;5014902;28;20428;-71
2021/06/02 10:07:26;;;;;;;13.52;4.38;;;;;;;24.57;39.37;96257.75;5031716;28;20042;-71
2021/06/02 10:09:52;;;;;;;14.38;5.38;;;;;;;24.56;37.74;96258.97;5032401;28;20563;-71
2021/06/02 10:12:18;;;;;;;12.23;5.72;;;;;;;24.67;37.41;96268.78;5031871;28;20049;-72
2021/06/02 10:14:56;;;;;;;16.30;5.50;;;;;;;24.66;37.02;96256.06;5031620;28;20049;-71
2021/06/02 10:17:27;;;;;;;8.73;4.22;;;;;;;24.63;36.71;96254.09;5031857;28;20052;-71
2021/06/02 10:19:53;;;;;;;10.57;4.53;;;;;;;24.75;37.48;96254.81;5032015;28;20790;-71
2021/06/02 10:22:21;;;;;;;13.52;5.05;;;;;;;24.88;38.08;96259.44;5031721;28;20049;-71
2021/06/02 10:24:48;;;;;;;14.75;4.45;;;;;;;24.82;37.64;96254.72;5032047;28;20041;-71
2021/06/02 10:27:15;;;;;;;11.77;4.78;;;;;;;24.95;37.34;96252.97;5031601;28;20057;-71
2021/06/02 10:29:41;;;;;;;13.73;5.00;;;;;;;24.96;37.10;96260.94;5031915;28;20041;-71
2021/06/02 10:32:09;;;;;;;11.10;4.47;;;;;;;24.99;37.15;96256.53;5041423;28;20045;-71
2021/06/02 10:34:35;;;;;;;15.35;5.10;;;;;;;25.03;35.65;96262.84;5030937;28;20038;-72
2021/06/02 10:37:01;;;;;;;14.88;5.28;;;;;;;25.07;36.14;96260.84;5031625;28;20052;-71
2021/06/02 10:39:30;;;;;;;15.52;4.65;;;;;;;25.18;35.33;96266.31;5031547;28;20055;-71
2021/06/02 10:42:01;;;;;;;10.65;4.20;;;;;;;25.33;38.12;96266.94;5032067;28;20045;-72
2021/06/02 10:44:33;;;;;;;11.93;4.20;;;;;;;25.37;32.25;96268.47;5031422;28;20108;-72
2021/06/02 10:47:01;;;;;;;10.43;4.40;;;;;;;25.21;33.27;96269.06;5031777;28;20488;-72
2021/06/02 10:49:34;;;;;;;10.95;4.25;;;;;;;25.23;35.21;96269.41;5030826;28;20480;-72
2021/06/02 10:52:00;;;;;;;11.50;3.47;;;;;;;25.23;36.08;96280.56;5031504;28;20057;-72
2021/06/02 10:54:34;;;;;;;14.25;4.10;;;;;;;25.28;36.71;96275.75;5030988;28;20048;-71
2021/06/02 10:57:14;;;;;;;13.15;4.47;;;;;;;25.20;30.61;96275.81;5031802;28;20080;-71
2021/06/02 10:59:43;;;;;;;12.38;3.80;;;;;;;24.99;34.79;96276.03;5030939;28;20099;-71
2021/06/02 11:02:10;;;;;;;13.73;3.88;;;;;;;25.00;35.86;96274.81;5040918;28;20045;-72
2021/06/02 11:04:39;;;;;;;11.10;4.10;;;;;;;25.10;36.06;96268.38;5031397;28;20052;-71
2021/06/02 11:07:19;;;;;;;9.32;3.63;;;;;;;25.25;32.82;96278.16;5031132;28;20075;-70
2021/06/02 11:09:56;;;;;;;13.07;4.20;;;;;;;25.15;33.58;96278.28;5030459;28;20473;-72
2021/06/02 11:12:23;;;;;;;11.52;4.50;;;;;;;25.10;34.38;96268.38;5030931;28;20056;-71
2021/06/02 11:14:49;;;;;;;8.20;3.22;;;;;;;25.20;32.79;96275.81;5031147;28;20063;-70
2021/06/02 11:17:18;;;;;;;7.57;3.60;;;;;;;25.24;33.22;96271.00;5030946;28;20049;-71
2021/06/02 11:19:50;;;;;;;10.70;3.90;;;;;;;25.28;31.72;96270.19;5030311;28;20096;-71
2021/06/02 11:22:18;;;;;;;9.98;3.60;;;;;;;25.25;33.21;96269.78;5030427;28;20046;-71
2021/06/02 11:24:47;;;;;;;11.85;3.53;;;;;;;25.18;34.38;96267.09;5031400;28;20037;-71
2021/06/02 11:27:39;;;;;;;10.45;4.30;;;;;;;25.14;34.93;96274.69;5030544;28;20046;-71
2021/06/02 11:30:18;;;;;;;7.10;3.20;;;;;;;25.21;36.26;96266.28;5030613;28;20048;-73
2021/06/02 11:32:59;;;;;;;8.25;3.60;;;;;;;25.30;34.08;96262.19;5021820;28;20049;-72
2021/06/02 11:35:58;;;;;;;9.35;3.30;;;;;;;25.27;32.46;96269.38;5037880;28;20512;-72
2021/06/02 11:38:26;;;;;;;10.95;3.38;;;;;;;25.28;31.86;96270.19;5034448;28;20432;-71
2021/06/02 11:40:53;;;;;;;14.63;4.10;;;;;;;25.11;31.29;96272.75;5030575;28;20175;-71
2021/06/02 11:43:20;;;;;;;10.20;3.60;;;;;;;24.95;31.38;96272.47;5050172;28;20045;-71
2021/06/02 11:45:47;;;;;;;14.75;4.15;;;;;;;24.79;30.61;96261.13;5050722;28;20049;-71
2021/06/02 11:48:19;;;;;;;9.00;3.15;;;;;;;24.76;34.74;96267.53;5048854;28;20432;-71
2021/06/02 11:50:45;;;;;;;11.13;3.78;;;;;;;24.80;35.02;96257.94;5050650;28;20045;-71
2021/06/02 11:53:13;;;;;;;9.68;3.40;;;;;;;24.86;34.72;96255.50;5050041;28;20144;-71
2021/06/02 11:55:39;;;;;;;13.05;4.15;;;;;;;24.89;35.47;96257.44;5050463;28;20096;-71
2021/06/02 11:58:05;;;;;;;9.70;3.78;;;;;;;24.92;34.59;96267.75;5050137;28;20044;-71
2021/06/02 12:00:33;;;;;;;9.00;3.78;;;;;;;24.90;32.07;96261.78;5050585;28;20045;-72
2021/06/02 12:03:00;;;;;;;12.27;3.58;;;;;;;24.85;34.26;96265.03;5036475;28;20049;-73